createdAt,value
2022-11-07T00:02:12.124Z,8.70
2022-11-07T00:07:11.805Z,8.80
2022-11-07T00:12:11.797Z,9.10
2022-11-07T00:17:11.711Z,8.60
2022-11-07T00:22:11.636Z,8.80
2022-11-07T00:27:11.584Z,9.50
2022-11-07T00:32:11.476Z,8.80
2022-11-07T00:37:11.436Z,8.60
2022-11-07T00:42:11.367Z,9.00
2022-11-07T00:47:11.298Z,9.00
2022-11-07T00:52:11.271Z,9.60
2022-11-07T00:57:11.197Z,9.60
2022-11-07T01:02:11.188Z,9.50
2022-11-07T01:07:11.077Z,9.30
2022-11-07T01:12:10.976Z,9.40
2022-11-07T01:17:10.956Z,9.40
2022-11-07T01:22:10.890Z,10.80
2022-11-07T01:27:10.812Z,10.20
2022-11-07T01:32:11.008Z,10.50
2022-11-07T01:37:10.672Z,11.40
2022-11-07T01:42:10.616Z,11.10
2022-11-07T01:47:10.527Z,11.70
2022-11-07T01:52:10.749Z,11.70
2022-11-07T01:57:10.473Z,12.40
2022-11-07T02:02:10.504Z,12.40
2022-11-07T02:07:10.308Z,12.40
2022-11-07T02:12:10.254Z,12.50
2022-11-07T02:17:10.186Z,12.30
2022-11-07T02:22:10.103Z,12.60
2022-11-07T02:27:10.015Z,12.90
2022-11-07T02:32:09.975Z,13.00
2022-11-07T02:37:09.868Z,13.60
2022-11-07T02:42:09.815Z,13.50
2022-11-07T02:47:09.773Z,13.40
2022-11-07T02:52:09.784Z,14.20
2022-11-07T02:57:09.663Z,13.50
2022-11-07T03:02:09.713Z,15.00
2022-11-07T03:07:09.506Z,13.20
2022-11-07T03:12:09.432Z,13.30
2022-11-07T03:17:09.384Z,13.50
2022-11-07T03:22:11.216Z,14.50
2022-11-07T03:27:11.353Z,14.10
2022-11-07T03:32:09.152Z,14.20
2022-11-07T03:37:09.122Z,14.00
2022-11-07T03:42:09.064Z,14.00
2022-11-07T03:47:09.002Z,14.10
2022-11-07T03:52:08.910Z,13.20
2022-11-07T03:57:08.864Z,14.20
2022-11-07T04:02:08.909Z,14.20
2022-11-07T04:07:08.709Z,13.20
2022-11-07T04:12:08.676Z,12.50
2022-11-07T04:17:08.621Z,12.60
2022-11-07T04:22:08.568Z,13.00
2022-11-07T04:27:08.450Z,12.50
2022-11-07T04:32:08.382Z,12.80
2022-11-07T04:37:09.571Z,12.40
2022-11-07T04:42:08.253Z,11.70
2022-11-07T04:47:08.228Z,12.40
2022-11-07T04:52:11.968Z,11.30
2022-11-07T04:57:08.104Z,12.40
2022-11-07T05:02:08.097Z,11.90
2022-11-07T05:07:07.906Z,12.10
2022-11-07T05:12:07.836Z,11.90
2022-11-07T05:17:07.816Z,11.30
2022-11-07T05:22:07.768Z,12.60
2022-11-07T05:27:07.670Z,11.40
2022-11-07T05:32:07.645Z,11.30
2022-11-07T05:37:07.576Z,11.50
2022-11-07T05:42:07.455Z,11.70
2022-11-07T05:47:07.436Z,11.10
2022-11-07T05:52:07.369Z,12.00
2022-11-07T05:57:07.297Z,12.40
2022-11-07T06:02:07.375Z,12.30
2022-11-07T06:07:07.153Z,12.70
2022-11-07T06:12:07.117Z,13.30
2022-11-07T06:17:07.073Z,13.00
2022-11-07T06:22:06.997Z,13.20
2022-11-07T06:27:06.882Z,13.20
2022-11-07T06:32:06.855Z,12.70
2022-11-07T06:37:06.771Z,12.80
2022-11-07T06:42:06.693Z,12.90
2022-11-07T06:47:06.637Z,11.80
2022-11-07T06:52:06.582Z,11.90
2022-11-07T06:57:06.630Z,11.90
2022-11-07T07:02:06.538Z,12.10
2022-11-07T07:07:06.373Z,11.80
2022-11-07T07:12:06.323Z,11.00
2022-11-07T07:17:06.258Z,10.80
2022-11-07T07:22:06.216Z,11.40
2022-11-07T07:27:06.118Z,10.20
2022-11-07T07:32:06.087Z,10.20
2022-11-07T07:37:05.998Z,9.90
2022-11-07T07:42:05.897Z,9.70
2022-11-07T07:47:11.077Z,9.90
2022-11-07T07:52:06.825Z,8.50
2022-11-07T07:57:05.741Z,9.10
2022-11-07T08:02:05.754Z,9.30
2022-11-07T08:07:05.632Z,8.70
2022-11-07T08:12:05.557Z,9.20
2022-11-07T08:17:05.490Z,9.10
2022-11-07T08:22:05.398Z,9.10
2022-11-07T08:27:05.364Z,8.80
2022-11-07T08:32:05.302Z,8.70
2022-11-07T08:37:05.187Z,8.60
2022-11-07T08:42:05.127Z,8.20
2022-11-07T08:47:08.399Z,7.90
2022-11-07T08:52:05.009Z,7.10
2022-11-07T08:57:04.932Z,7.30
2022-11-07T09:02:47.512Z,7.20
2022-11-07T09:07:05.782Z,5.90
2022-11-07T09:12:04.720Z,5.90
2022-11-07T09:17:04.733Z,5.90
2022-11-07T09:22:04.619Z,4.70
2022-11-07T09:27:04.523Z,4.40
2022-11-07T09:32:23.366Z,3.90
2022-11-07T09:37:05.444Z,3.70
2022-11-07T09:42:04.334Z,2.90
2022-11-07T09:47:04.246Z,3.20
2022-11-07T09:52:04.223Z,3.20
2022-11-07T09:57:04.134Z,2.80
2022-11-07T10:02:04.144Z,3.00
2022-11-07T10:07:03.973Z,3.10
2022-11-07T10:12:03.913Z,2.30
2022-11-07T10:17:03.905Z,2.50
2022-11-07T10:22:03.816Z,2.10
2022-11-07T10:27:03.720Z,1.40
2022-11-07T10:32:03.666Z,1.10
2022-11-07T10:37:03.601Z,0.90
2022-11-07T10:42:03.556Z,1.00
2022-11-07T10:47:03.472Z,1.00
2022-11-07T10:52:03.466Z,1.00
2022-11-07T10:57:03.352Z,1.00
2022-11-07T11:02:03.397Z,0.90
2022-11-07T11:07:03.309Z,1.00
2022-11-07T11:12:03.163Z,1.30
2022-11-07T11:17:03.160Z,1.00
2022-11-07T11:22:08.614Z,1.30
2022-11-07T11:27:03.954Z,1.20
2022-11-07T11:32:02.929Z,0.90
2022-11-07T11:37:02.969Z,1.10
2022-11-07T11:42:02.757Z,0.90
2022-11-07T11:47:02.772Z,1.10
2022-11-07T11:52:02.623Z,0.80
2022-11-07T11:57:02.562Z,0.90
2022-11-07T12:02:02.494Z,0.90
2022-11-07T12:07:02.479Z,0.90
2022-11-07T12:12:02.357Z,0.90
2022-11-07T12:17:02.381Z,0.90
2022-11-07T12:22:02.549Z,0.90
2022-11-07T12:27:02.171Z,1.20
2022-11-07T12:32:02.120Z,0.90
2022-11-07T12:37:02.200Z,1.00
2022-11-07T12:42:01.967Z,0.70
2022-11-07T12:47:01.938Z,0.80
2022-11-07T12:52:01.816Z,0.90
2022-11-07T12:57:01.794Z,1.00
2022-11-07T13:02:01.805Z,1.00
2022-11-07T13:07:01.607Z,0.90
2022-11-07T13:12:01.594Z,1.00
2022-11-07T13:17:01.514Z,1.10
2022-11-07T13:22:01.424Z,0.90
2022-11-07T13:27:01.361Z,0.80
2022-11-07T13:32:01.272Z,0.90
2022-11-07T13:37:01.200Z,1.00
2022-11-07T13:42:01.173Z,1.10
2022-11-07T13:47:01.362Z,1.00
2022-11-07T13:52:01.108Z,1.10
2022-11-07T13:57:00.991Z,1.30
2022-11-07T14:02:00.971Z,0.90
2022-11-07T14:07:00.846Z,1.30
2022-11-07T14:12:00.777Z,0.90
2022-11-07T14:17:00.845Z,1.00
2022-11-07T14:22:01.589Z,0.80
2022-11-07T14:27:00.579Z,0.80
2022-11-07T14:32:00.573Z,0.80
2022-11-07T14:37:00.456Z,1.00
2022-11-07T14:42:02.739Z,0.60
2022-11-07T14:47:00.500Z,0.80
2022-11-07T14:52:00.254Z,0.80
2022-11-07T14:57:00.200Z,0.80
2022-11-07T15:02:00.217Z,0.90
2022-11-07T15:07:00.031Z,0.80
2022-11-07T15:12:00.127Z,0.90
2022-11-07T15:16:59.927Z,1.20
2022-11-07T15:21:59.843Z,0.90
2022-11-07T15:26:59.811Z,0.90
2022-11-07T15:31:59.760Z,1.20
2022-11-07T15:36:59.689Z,0.90
2022-11-07T15:41:59.586Z,0.90
2022-11-07T15:46:59.506Z,0.80
2022-11-07T15:51:59.429Z,0.90
2022-11-07T15:56:59.418Z,1.00
2022-11-07T16:01:59.420Z,1.00
2022-11-07T16:07:00.135Z,1.10
2022-11-07T16:11:59.172Z,0.90
2022-11-07T16:16:59.111Z,1.40
2022-11-07T16:21:59.036Z,1.10
2022-11-07T16:26:59.729Z,0.90
2022-11-07T16:31:58.922Z,1.20
2022-11-07T16:36:58.826Z,1.20
2022-11-07T16:41:58.783Z,1.40
2022-11-07T16:46:58.746Z,1.20
2022-11-07T16:51:58.653Z,1.30
2022-11-07T16:56:58.544Z,1.80
2022-11-07T17:01:58.606Z,2.10
2022-11-07T17:06:58.451Z,3.10
2022-11-07T17:11:58.371Z,3.30
2022-11-07T17:17:00.941Z,3.80
2022-11-07T17:21:58.302Z,3.40
2022-11-07T17:26:58.184Z,3.90
2022-11-07T17:31:58.102Z,4.10
2022-11-07T17:36:58.045Z,4.10
2022-11-07T17:41:58.002Z,4.50
2022-11-07T17:46:57.940Z,4.00
2022-11-07T17:51:57.960Z,4.10
2022-11-07T17:56:57.793Z,4.50
2022-11-07T18:01:57.833Z,4.70
2022-11-07T18:06:57.783Z,4.70
2022-11-07T18:11:57.660Z,4.70
2022-11-07T18:16:57.559Z,4.80
2022-11-07T18:21:57.485Z,4.70
2022-11-07T18:26:57.502Z,4.40
2022-11-07T18:31:57.423Z,4.70
2022-11-07T18:36:57.280Z,4.80
2022-11-07T18:41:57.215Z,5.30
2022-11-07T18:46:57.163Z,4.60
2022-11-07T18:51:57.068Z,4.70
2022-11-07T18:56:57.025Z,4.90
2022-11-07T19:01:57.026Z,4.80
2022-11-07T19:06:57.232Z,5.00
2022-11-07T19:11:56.823Z,4.50
2022-11-07T19:16:56.725Z,4.80
2022-11-07T19:21:56.693Z,5.10
2022-11-07T19:26:56.626Z,4.70
2022-11-07T19:31:56.553Z,4.20
2022-11-07T19:36:56.477Z,4.70
2022-11-07T19:41:56.405Z,4.70
2022-11-07T19:46:56.353Z,4.70
2022-11-07T19:51:56.311Z,5.00
2022-11-07T19:56:57.635Z,4.90
2022-11-07T20:02:25.766Z,4.90
2022-11-07T20:06:57.085Z,4.90
2022-11-07T20:11:56.056Z,5.60
2022-11-07T20:16:56.056Z,5.40
2022-11-07T20:21:55.907Z,5.00
2022-11-07T20:26:55.815Z,5.00
2022-11-07T20:31:55.859Z,4.30
2022-11-07T20:36:55.712Z,4.70
2022-11-07T20:41:55.695Z,4.30
2022-11-07T20:46:55.561Z,4.10
2022-11-07T20:51:55.476Z,4.10
2022-11-07T20:56:55.419Z,3.60
2022-11-07T21:02:00.189Z,4.00
2022-11-07T21:06:56.331Z,3.60
2022-11-07T21:11:55.223Z,3.60
2022-11-07T21:16:55.153Z,3.40
2022-11-07T21:21:55.136Z,3.90
2022-11-07T21:26:55.009Z,3.70
2022-11-07T21:31:54.953Z,3.90
2022-11-07T21:36:54.909Z,3.70
2022-11-07T21:41:54.837Z,3.50
2022-11-07T21:46:54.738Z,3.10
2022-11-07T21:51:54.725Z,3.00
2022-11-07T21:56:54.607Z,3.10
2022-11-07T22:01:54.656Z,2.90
2022-11-07T22:06:54.489Z,3.00
2022-11-07T22:11:54.430Z,2.90
2022-11-07T22:16:54.363Z,2.70
2022-11-07T22:21:54.297Z,2.80
2022-11-07T22:26:54.233Z,2.70
2022-11-07T22:31:54.172Z,2.70
2022-11-07T22:36:54.119Z,2.60
2022-11-07T22:41:54.027Z,2.50
2022-11-07T22:46:53.983Z,3.10
2022-11-07T22:51:53.892Z,2.60
2022-11-07T22:56:53.826Z,2.60
2022-11-07T23:01:53.889Z,2.60
2022-11-07T23:06:53.739Z,2.60
2022-11-07T23:11:53.673Z,2.30
2022-11-07T23:16:53.568Z,2.40
2022-11-07T23:21:53.536Z,2.80
2022-11-07T23:26:53.485Z,2.70
2022-11-07T23:31:53.443Z,2.80
2022-11-07T23:36:53.311Z,2.60
2022-11-07T23:41:53.336Z,2.50
2022-11-07T23:46:53.176Z,2.30
2022-11-07T23:51:53.121Z,2.60
2022-11-07T23:56:53.071Z,2.40
